الصفحة الرئيسية
METAR-TAF:

METAR-TAF

مطار :

مطار ديوري حماني

نيامي, النيجر

دائرة عرض: 13-29N, خط طول: 002-10E, ارتفاع: 223 متر

مراقبة الطقس الحالي

تاريخ ووقت الإصدار 1ساعة و 1 دقيقة قبل الساعة 18:00UTC
ريح 5 عقدة من الغرب
درجة الحرارة 32°درجة مئوية
الرطوبة 46%
ضغط 1012 hPa
الرؤية 10 كم أو أكثر
غيوم متفرقة على ارتفاع 1600 قدم
غيوم قليلة على ارتفاع 2600 قدم, مزنة ركامية.

METAR: DRRN 141800Z 28005KT 9999 SCT016 FEW026CB 32/19 Q1012 NOSIG

زمن: 20:01 (19:01 UTC)

توقعات

تاريخ ووقت الإصدار 2ساعات و 1 دقيقة قبل الساعة 17:00UTC
التوقعات صالحة من14 الساعة 18 UTC إلى 15 الساعة 24 UTC
ريح 8 عقدة من الغرب/الجنوب الغربي
الرؤية 10 كم أو أكثر
غيوم مفككة على ارتفاع 1600 قدم
غيوم قليلة على ارتفاع 2600 قدم, مزنة ركامية.
نظرية الاحتمالات 40% :
مؤقت
من 14 الساعة 18 UTC إلى 14 الساعة 24 UTC
الرؤية: 4000 متر
عاصفة رعدية, زخات من المطر
أصبح
من 15 الساعة 00 UTC إلى 15 الساعة 02 UTC
غيوم قليلة على ارتفاع 1300 قدم

TAF: DRRN 141700Z 1418/1524 24008KT 9999 BKN016 FEW026CB PROB40 TEMPO 1418/1424 4000 TS SHRA BECMG 1500/1502 FEW013

أرصاد الطقس والتوقعات من أكثر من 4000 مطار (تقارير الطقس للمطار METAR والتنبؤ بالطقس بالمطارTAF).

المحطات المتاحة هي النقط الصفراء والحمراء على الخريطة.

حرك المؤشر فوق النقطة لمعرفة اسم المحطة.

ثم انقر لمعرفة أرصاد وتوقعات الطقس.

لتغيير الخارطة: اضغط على الأزرار الخضراء مع رمز الصليب الأسود للتكبير. على الزر الأخضر مع شرطة للتصغير، أو على الأسهم الخضراء للخرائط المجاورة.


METAR-TAF: